sensor_id;sensor_type;location;lat;lon;timestamp;P1;durP1;ratioP1;P2;durP2;ratioP2
20972;SDS011;10645;52.370;13.314;2022-10-23T00:01:11;2.97;;;2.75;;
20972;SDS011;10645;52.370;13.314;2022-10-23T00:03:42;3.65;;;2.15;;
20972;SDS011;10645;52.370;13.314;2022-10-23T00:06:10;1.73;;;1.60;;
20972;SDS011;10645;52.370;13.314;2022-10-23T00:08:37;1.63;;;1.52;;
20972;SDS011;10645;52.370;13.314;2022-10-23T00:11:07;1.88;;;1.23;;
20972;SDS011;10645;52.370;13.314;2022-10-23T00:13:35;1.98;;;1.80;;
20972;SDS011;10645;52.370;13.314;2022-10-23T00:16:02;2.88;;;1.85;;
20972;SDS011;10645;52.370;13.314;2022-10-23T00:18:28;1.00;;;1.00;;
20972;SDS011;10645;52.370;13.314;2022-10-23T00:20:55;2.90;;;2.05;;
20972;SDS011;10645;52.370;13.314;2022-10-23T00:23:21;1.80;;;1.67;;
20972;SDS011;10645;52.370;13.314;2022-10-23T00:25:47;1.80;;;1.70;;
20972;SDS011;10645;52.370;13.314;2022-10-23T00:28:13;3.97;;;2.40;;
20972;SDS011;10645;52.370;13.314;2022-10-23T00:30:39;3.75;;;3.22;;
20972;SDS011;10645;52.370;13.314;2022-10-23T00:33:05;2.08;;;1.98;;
20972;SDS011;10645;52.370;13.314;2022-10-23T00:35:32;2.05;;;1.88;;
20972;SDS011;10645;52.370;13.314;2022-10-23T00:37:58;2.92;;;2.45;;
20972;SDS011;10645;52.370;13.314;2022-10-23T00:40:24;2.40;;;2.20;;
20972;SDS011;10645;52.370;13.314;2022-10-23T00:42:50;3.53;;;2.42;;
20972;SDS011;10645;52.370;13.314;2022-10-23T00:45:19;3.60;;;1.83;;
20972;SDS011;10645;52.370;13.314;2022-10-23T00:47:47;2.35;;;2.15;;
20972;SDS011;10645;52.370;13.314;2022-10-23T00:50:14;3.30;;;1.95;;
20972;SDS011;10645;52.370;13.314;2022-10-23T00:52:44;2.97;;;2.72;;
20972;SDS011;10645;52.370;13.314;2022-10-23T00:55:13;3.15;;;2.08;;
20972;SDS011;10645;52.370;13.314;2022-10-23T00:57:41;1.90;;;1.70;;
20972;SDS011;10645;52.370;13.314;2022-10-23T01:00:10;4.57;;;2.28;;
20972;SDS011;10645;52.370;13.314;2022-10-23T01:02:42;1.58;;;1.48;;
20972;SDS011;10645;52.370;13.314;2022-10-23T01:05:09;3.00;;;2.03;;
20972;SDS011;10645;52.370;13.314;2022-10-23T01:07:37;1.75;;;1.65;;
20972;SDS011;10645;52.370;13.314;2022-10-23T01:10:19;2.55;;;2.35;;
20972;SDS011;10645;52.370;13.314;2022-10-23T01:13:47;1.20;;;1.08;;
20972;SDS011;10645;52.370;13.314;2022-10-23T01:16:20;2.83;;;2.60;;
20972;SDS011;10645;52.370;13.314;2022-10-23T01:19:08;2.70;;;2.50;;
20972;SDS011;10645;52.370;13.314;2022-10-23T01:25:28;2.50;;;2.30;;
20972;SDS011;10645;52.370;13.314;2022-10-23T01:30:04;11.10;;;2.35;;
20972;SDS011;10645;52.370;13.314;2022-10-23T01:32:38;4.68;;;2.88;;
20972;SDS011;10645;52.370;13.314;2022-10-23T01:35:21;5.13;;;2.75;;
20972;SDS011;10645;52.370;13.314;2022-10-23T01:38:05;1.30;;;1.17;;
20972;SDS011;10645;52.370;13.314;2022-10-23T01:40:38;2.00;;;1.80;;
20972;SDS011;10645;52.370;13.314;2022-10-23T01:43:15;1.40;;;1.17;;
20972;SDS011;10645;52.370;13.314;2022-10-23T01:45:47;2.85;;;2.25;;
20972;SDS011;10645;52.370;13.314;2022-10-23T01:48:20;2.63;;;2.42;;
20972;SDS011;10645;52.370;13.314;2022-10-23T01:50:51;1.88;;;1.30;;
20972;SDS011;10645;52.370;13.314;2022-10-23T01:53:19;2.88;;;2.50;;
20972;SDS011;10645;52.370;13.314;2022-10-23T01:55:47;3.20;;;2.88;;
20972;SDS011;10645;52.370;13.314;2022-10-23T01:58:21;1.67;;;1.58;;
20972;SDS011;10645;52.370;13.314;2022-10-23T02:00:49;3.17;;;2.17;;
20972;SDS011;10645;52.370;13.314;2022-10-23T02:03:17;1.95;;;1.70;;
20972;SDS011;10645;52.370;13.314;2022-10-23T02:05:45;1.08;;;1.08;;
20972;SDS011;10645;52.370;13.314;2022-10-23T02:08:11;3.55;;;1.95;;
20972;SDS011;10645;52.370;13.314;2022-10-23T02:10:40;2.75;;;2.55;;
20972;SDS011;10645;52.370;13.314;2022-10-23T02:13:23;1.30;;;1.20;;
20972;SDS011;10645;52.370;13.314;2022-10-23T02:19:01;1.50;;;1.40;;
20972;SDS011;10645;52.370;13.314;2022-10-23T02:21:54;0.98;;;0.98;;
20972;SDS011;10645;52.370;13.314;2022-10-23T02:24:44;0.90;;;0.90;;
20972;SDS011;10645;52.370;13.314;2022-10-23T02:27:29;2.97;;;1.52;;
20972;SDS011;10645;52.370;13.314;2022-10-23T02:30:04;1.27;;;0.82;;
20972;SDS011;10645;52.370;13.314;2022-10-23T02:32:33;0.85;;;0.73;;
20972;SDS011;10645;52.370;13.314;2022-10-23T02:35:00;1.80;;;1.65;;
20972;SDS011;10645;52.370;13.314;2022-10-23T02:37:27;1.65;;;1.55;;
20972;SDS011;10645;52.370;13.314;2022-10-23T02:39:53;1.52;;;1.02;;
20972;SDS011;10645;52.370;13.314;2022-10-23T02:42:35;7.88;;;1.70;;
20972;SDS011;10645;52.370;13.314;2022-10-23T02:45:22;1.52;;;1.42;;
20972;SDS011;10645;52.370;13.314;2022-10-23T02:48:01;3.53;;;0.80;;
20972;SDS011;10645;52.370;13.314;2022-10-23T02:50:40;1.33;;;1.33;;
20972;SDS011;10645;52.370;13.314;2022-10-23T02:53:18;2.38;;;2.17;;
20972;SDS011;10645;52.370;13.314;2022-10-23T02:56:16;1.42;;;1.27;;
20972;SDS011;10645;52.370;13.314;2022-10-23T02:58:57;2.10;;;1.17;;
20972;SDS011;10645;52.370;13.314;2022-10-23T03:01:35;1.42;;;1.33;;
20972;SDS011;10645;52.370;13.314;2022-10-23T03:04:07;2.15;;;1.60;;
20972;SDS011;10645;52.370;13.314;2022-10-23T03:06:35;4.72;;;1.70;;
20972;SDS011;10645;52.370;13.314;2022-10-23T03:09:06;1.15;;;0.45;;
20972;SDS011;10645;52.370;13.314;2022-10-23T03:11:33;1.80;;;1.50;;
20972;SDS011;10645;52.370;13.314;2022-10-23T03:14:00;1.23;;;1.23;;
20972;SDS011;10645;52.370;13.314;2022-10-23T03:16:26;2.65;;;1.90;;
20972;SDS011;10645;52.370;13.314;2022-10-23T03:18:54;2.25;;;1.83;;
20972;SDS011;10645;52.370;13.314;2022-10-23T03:21:20;0.90;;;0.88;;
20972;SDS011;10645;52.370;13.314;2022-10-23T03:23:50;3.05;;;2.75;;
20972;SDS011;10645;52.370;13.314;2022-10-23T03:26:21;1.85;;;1.50;;
20972;SDS011;10645;52.370;13.314;2022-10-23T03:28:47;1.10;;;0.98;;
20972;SDS011;10645;52.370;13.314;2022-10-23T03:31:15;3.30;;;3.00;;
20972;SDS011;10645;52.370;13.314;2022-10-23T03:33:42;3.00;;;2.72;;
20972;SDS011;10645;52.370;13.314;2022-10-23T03:36:10;2.38;;;1.05;;
20972;SDS011;10645;52.370;13.314;2022-10-23T03:38:36;1.45;;;1.13;;
20972;SDS011;10645;52.370;13.314;2022-10-23T03:41:03;2.25;;;1.92;;
20972;SDS011;10645;52.370;13.314;2022-10-23T03:43:29;2.80;;;1.60;;
20972;SDS011;10645;52.370;13.314;2022-10-23T03:45:56;2.20;;;1.95;;
20972;SDS011;10645;52.370;13.314;2022-10-23T03:48:24;2.53;;;1.73;;
20972;SDS011;10645;52.370;13.314;2022-10-23T03:50:51;2.08;;;1.48;;
20972;SDS011;10645;52.370;13.314;2022-10-23T03:53:17;2.30;;;1.42;;
20972;SDS011;10645;52.370;13.314;2022-10-23T03:55:43;1.40;;;1.30;;
20972;SDS011;10645;52.370;13.314;2022-10-23T03:58:10;1.42;;;1.00;;
20972;SDS011;10645;52.370;13.314;2022-10-23T04:00:36;1.15;;;0.98;;
20972;SDS011;10645;52.370;13.314;2022-10-23T04:03:02;1.50;;;1.40;;
20972;SDS011;10645;52.370;13.314;2022-10-23T04:05:28;8.70;;;1.67;;
20972;SDS011;10645;52.370;13.314;2022-10-23T04:07:57;0.90;;;0.90;;
20972;SDS011;10645;52.370;13.314;2022-10-23T04:10:24;1.50;;;1.40;;
20972;SDS011;10645;52.370;13.314;2022-10-23T04:12:50;0.73;;;0.68;;
20972;SDS011;10645;52.370;13.314;2022-10-23T04:15:16;1.63;;;1.23;;
20972;SDS011;10645;52.370;13.314;2022-10-23T04:17:44;1.33;;;0.82;;
20972;SDS011;10645;52.370;13.314;2022-10-23T04:20:11;0.75;;;0.75;;
20972;SDS011;10645;52.370;13.314;2022-10-23T04:22:37;0.65;;;0.65;;
20972;SDS011;10645;52.370;13.314;2022-10-23T04:25:03;1.17;;;1.08;;
20972;SDS011;10645;52.370;13.314;2022-10-23T04:27:31;1.27;;;1.27;;
20972;SDS011;10645;52.370;13.314;2022-10-23T04:29:59;1.55;;;1.05;;
20972;SDS011;10645;52.370;13.314;2022-10-23T04:32:26;1.20;;;1.10;;
20972;SDS011;10645;52.370;13.314;2022-10-23T04:34:52;0.70;;;0.60;;
20972;SDS011;10645;52.370;13.314;2022-10-23T04:37:18;0.80;;;0.80;;
20972;SDS011;10645;52.370;13.314;2022-10-23T04:39:44;0.52;;;0.43;;
20972;SDS011;10645;52.370;13.314;2022-10-23T04:42:12;0.70;;;0.70;;
20972;SDS011;10645;52.370;13.314;2022-10-23T04:44:39;0.38;;;0.38;;
20972;SDS011;10645;52.370;13.314;2022-10-23T04:47:05;0.45;;;0.45;;
20972;SDS011;10645;52.370;13.314;2022-10-23T04:49:35;0.75;;;0.60;;
20972;SDS011;10645;52.370;13.314;2022-10-23T04:52:33;1.13;;;1.02;;
20972;SDS011;10645;52.370;13.314;2022-10-23T04:55:22;0.73;;;0.60;;
20972;SDS011;10645;52.370;13.314;2022-10-23T04:58:10;0.65;;;0.65;;
20972;SDS011;10645;52.370;13.314;2022-10-23T05:00:36;0.75;;;0.75;;
20972;SDS011;10645;52.370;13.314;2022-10-23T05:03:02;1.27;;;0.85;;
20972;SDS011;10645;52.370;13.314;2022-10-23T05:05:40;0.20;;;0.20;;
20972;SDS011;10645;52.370;13.314;2022-10-23T05:08:25;1.55;;;0.50;;
20972;SDS011;10645;52.370;13.314;2022-10-23T05:11:19;0.55;;;0.55;;
20972;SDS011;10645;52.370;13.314;2022-10-23T05:13:47;0.50;;;0.50;;
20972;SDS011;10645;52.370;13.314;2022-10-23T05:16:20;1.05;;;0.98;;
20972;SDS011;10645;52.370;13.314;2022-10-23T05:18:57;0.60;;;0.60;;
20972;SDS011;10645;52.370;13.314;2022-10-23T05:21:26;2.17;;;2.05;;
20972;SDS011;10645;52.370;13.314;2022-10-23T05:23:58;1.35;;;0.98;;
20972;SDS011;10645;52.370;13.314;2022-10-23T05:26:26;0.90;;;0.75;;
20972;SDS011;10645;52.370;13.314;2022-10-23T05:28:54;0.38;;;0.38;;
20972;SDS011;10645;52.370;13.314;2022-10-23T05:31:21;0.80;;;0.80;;
20972;SDS011;10645;52.370;13.314;2022-10-23T05:33:49;0.77;;;0.77;;
20972;SDS011;10645;52.370;13.314;2022-10-23T05:36:19;2.10;;;1.38;;
20972;SDS011;10645;52.370;13.314;2022-10-23T05:38:51;0.90;;;0.80;;
20972;SDS011;10645;52.370;13.314;2022-10-23T05:41:19;1.40;;;1.30;;
20972;SDS011;10645;52.370;13.314;2022-10-23T05:43:46;0.65;;;0.65;;
20972;SDS011;10645;52.370;13.314;2022-10-23T05:46:30;1.52;;;0.95;;
20972;SDS011;10645;52.370;13.314;2022-10-23T05:49:29;0.50;;;0.50;;
20972;SDS011;10645;52.370;13.314;2022-10-23T05:52:20;0.55;;;0.55;;
20972;SDS011;10645;52.370;13.314;2022-10-23T05:55:09;0.85;;;0.82;;
20972;SDS011;10645;52.370;13.314;2022-10-23T05:57:53;1.20;;;0.95;;
20972;SDS011;10645;52.370;13.314;2022-10-23T06:00:33;1.65;;;1.20;;
20972;SDS011;10645;52.370;13.314;2022-10-23T06:03:19;0.93;;;0.93;;
20972;SDS011;10645;52.370;13.314;2022-10-23T06:05:49;0.32;;;0.32;;
20972;SDS011;10645;52.370;13.314;2022-10-23T06:08:19;0.90;;;0.88;;
20972;SDS011;10645;52.370;13.314;2022-10-23T06:10:48;0.50;;;0.50;;
20972;SDS011;10645;52.370;13.314;2022-10-23T06:13:14;0.93;;;0.70;;
20972;SDS011;10645;52.370;13.314;2022-10-23T06:15:40;0.68;;;0.68;;
20972;SDS011;10645;52.370;13.314;2022-10-23T06:18:21;1.75;;;1.08;;
20972;SDS011;10645;52.370;13.314;2022-10-23T06:20:53;2.88;;;1.65;;
20972;SDS011;10645;52.370;13.314;2022-10-23T06:23:23;2.63;;;1.83;;
20972;SDS011;10645;52.370;13.314;2022-10-23T06:26:12;1.65;;;1.15;;
20972;SDS011;10645;52.370;13.314;2022-10-23T06:28:51;1.33;;;0.88;;
20972;SDS011;10645;52.370;13.314;2022-10-23T06:31:18;1.75;;;1.15;;
20972;SDS011;10645;52.370;13.314;2022-10-23T06:33:45;0.85;;;0.85;;
20972;SDS011;10645;52.370;13.314;2022-10-23T06:36:11;2.00;;;1.88;;
20972;SDS011;10645;52.370;13.314;2022-10-23T06:38:40;1.35;;;1.25;;
20972;SDS011;10645;52.370;13.314;2022-10-23T06:41:10;2.67;;;2.42;;
20972;SDS011;10645;52.370;13.314;2022-10-23T06:43:40;2.70;;;1.98;;
20972;SDS011;10645;52.370;13.314;2022-10-23T06:46:24;2.50;;;2.30;;
20972;SDS011;10645;52.370;13.314;2022-10-23T06:49:15;1.77;;;1.67;;
20972;SDS011;10645;52.370;13.314;2022-10-23T06:51:46;1.73;;;1.63;;
20972;SDS011;10645;52.370;13.314;2022-10-23T06:54:13;1.77;;;1.67;;
20972;SDS011;10645;52.370;13.314;2022-10-23T06:56:57;1.20;;;0.80;;
20972;SDS011;10645;52.370;13.314;2022-10-23T06:59:33;2.20;;;2.10;;
20972;SDS011;10645;52.370;13.314;2022-10-23T07:01:59;3.63;;;2.38;;
20972;SDS011;10645;52.370;13.314;2022-10-23T07:04:26;3.60;;;1.98;;
20972;SDS011;10645;52.370;13.314;2022-10-23T07:06:56;2.53;;;1.92;;
20972;SDS011;10645;52.370;13.314;2022-10-23T07:09:27;2.05;;;1.95;;
20972;SDS011;10645;52.370;13.314;2022-10-23T07:11:53;2.85;;;2.58;;
20972;SDS011;10645;52.370;13.314;2022-10-23T07:14:26;1.73;;;1.48;;
20972;SDS011;10645;52.370;13.314;2022-10-23T07:16:57;2.33;;;1.55;;
20972;SDS011;10645;52.370;13.314;2022-10-23T07:19:23;2.10;;;1.52;;
20972;SDS011;10645;52.370;13.314;2022-10-23T07:21:53;3.55;;;2.45;;
20972;SDS011;10645;52.370;13.314;2022-10-23T07:24:45;30.55;;;24.30;;
20972;SDS011;10645;52.370;13.314;2022-10-23T07:27:22;20.77;;;18.52;;
20972;SDS011;10645;52.370;13.314;2022-10-23T07:29:54;10.15;;;5.90;;
20972;SDS011;10645;52.370;13.314;2022-10-23T07:32:20;16.27;;;11.38;;
20972;SDS011;10645;52.370;13.314;2022-10-23T07:35:17;16.00;;;12.85;;
20972;SDS011;10645;52.370;13.314;2022-10-23T07:37:54;12.38;;;10.23;;
20972;SDS011;10645;52.370;13.314;2022-10-23T07:40:21;12.57;;;7.53;;
20972;SDS011;10645;52.370;13.314;2022-10-23T07:42:49;5.53;;;5.07;;
20972;SDS011;10645;52.370;13.314;2022-10-23T07:45:15;3.13;;;2.53;;
20972;SDS011;10645;52.370;13.314;2022-10-23T07:47:48;5.00;;;3.92;;
20972;SDS011;10645;52.370;13.314;2022-10-23T07:50:15;2.58;;;2.38;;
20972;SDS011;10645;52.370;13.314;2022-10-23T07:52:41;2.33;;;2.13;;
20972;SDS011;10645;52.370;13.314;2022-10-23T07:55:12;2.72;;;2.53;;
20972;SDS011;10645;52.370;13.314;2022-10-23T07:57:46;8.10;;;2.35;;
20972;SDS011;10645;52.370;13.314;2022-10-23T08:00:31;4.20;;;1.95;;
20972;SDS011;10645;52.370;13.314;2022-10-23T08:03:08;5.63;;;2.42;;
20972;SDS011;10645;52.370;13.314;2022-10-23T08:05:35;1.90;;;1.80;;
20972;SDS011;10645;52.370;13.314;2022-10-23T08:08:03;2.72;;;2.22;;
20972;SDS011;10645;52.370;13.314;2022-10-23T08:10:29;3.17;;;2.47;;
20972;SDS011;10645;52.370;13.314;2022-10-23T08:12:57;2.70;;;2.08;;
20972;SDS011;10645;52.370;13.314;2022-10-23T08:15:41;2.70;;;2.30;;
20972;SDS011;10645;52.370;13.314;2022-10-23T08:18:23;4.35;;;2.15;;
20972;SDS011;10645;52.370;13.314;2022-10-23T08:20:49;4.15;;;3.35;;
20972;SDS011;10645;52.370;13.314;2022-10-23T08:23:18;2.22;;;2.03;;
20972;SDS011;10645;52.370;13.314;2022-10-23T08:25:45;1.65;;;1.42;;
20972;SDS011;10645;52.370;13.314;2022-10-23T08:28:13;2.63;;;2.00;;
20972;SDS011;10645;52.370;13.314;2022-10-23T08:30:49;2.28;;;1.65;;
20972;SDS011;10645;52.370;13.314;2022-10-23T08:33:16;3.53;;;3.33;;
20972;SDS011;10645;52.370;13.314;2022-10-23T08:35:43;2.22;;;2.00;;
20972;SDS011;10645;52.370;13.314;2022-10-23T08:38:10;3.13;;;2.50;;
20972;SDS011;10645;52.370;13.314;2022-10-23T08:40:47;2.42;;;1.88;;
20972;SDS011;10645;52.370;13.314;2022-10-23T08:43:36;4.10;;;2.22;;
20972;SDS011;10645;52.370;13.314;2022-10-23T08:46:23;4.05;;;2.42;;
20972;SDS011;10645;52.370;13.314;2022-10-23T08:49:29;2.03;;;1.85;;
20972;SDS011;10645;52.370;13.314;2022-10-23T08:52:15;2.70;;;1.85;;
20972;SDS011;10645;52.370;13.314;2022-10-23T08:57:32;1.42;;;1.33;;
20972;SDS011;10645;52.370;13.314;2022-10-23T09:00:06;4.13;;;2.40;;
20972;SDS011;10645;52.370;13.314;2022-10-23T09:05:14;2.15;;;2.03;;
20972;SDS011;10645;52.370;13.314;2022-10-23T09:08:01;2.28;;;2.08;;
20972;SDS011;10645;52.370;13.314;2022-10-23T09:17:05;2.40;;;2.20;;
20972;SDS011;10645;52.370;13.314;2022-10-23T09:19:35;1.90;;;1.50;;
20972;SDS011;10645;52.370;13.314;2022-10-23T09:22:01;4.20;;;2.00;;
20972;SDS011;10645;52.370;13.314;2022-10-23T09:24:29;2.72;;;2.50;;
20972;SDS011;10645;52.370;13.314;2022-10-23T09:26:56;2.35;;;2.15;;
20972;SDS011;10645;52.370;13.314;2022-10-23T09:29:26;2.35;;;2.15;;
20972;SDS011;10645;52.370;13.314;2022-10-23T09:31:58;2.05;;;1.95;;
20972;SDS011;10645;52.370;13.314;2022-10-23T09:34:26;4.47;;;1.70;;
20972;SDS011;10645;52.370;13.314;2022-10-23T09:36:58;1.92;;;1.70;;
20972;SDS011;10645;52.370;13.314;2022-10-23T09:39:27;1.88;;;1.75;;
20972;SDS011;10645;52.370;13.314;2022-10-23T09:41:58;1.65;;;1.52;;
20972;SDS011;10645;52.370;13.314;2022-10-23T09:44:27;7.28;;;1.50;;
20972;SDS011;10645;52.370;13.314;2022-10-23T09:47:00;1.17;;;1.08;;
20972;SDS011;10645;52.370;13.314;2022-10-23T09:49:37;3.40;;;1.98;;
20972;SDS011;10645;52.370;13.314;2022-10-23T09:54:38;1.20;;;1.10;;
20972;SDS011;10645;52.370;13.314;2022-10-23T09:57:22;1.40;;;1.30;;
20972;SDS011;10645;52.370;13.314;2022-10-23T09:59:50;1.63;;;1.40;;
20972;SDS011;10645;52.370;13.314;2022-10-23T10:02:20;1.65;;;1.55;;
20972;SDS011;10645;52.370;13.314;2022-10-23T10:05:25;1.00;;;1.00;;
20972;SDS011;10645;52.370;13.314;2022-10-23T10:07:59;3.00;;;1.77;;
20972;SDS011;10645;52.370;13.314;2022-10-23T10:10:35;2.08;;;1.50;;
20972;SDS011;10645;52.370;13.314;2022-10-23T10:13:07;3.85;;;1.48;;
20972;SDS011;10645;52.370;13.314;2022-10-23T10:15:59;1.13;;;1.02;;
20972;SDS011;10645;52.370;13.314;2022-10-23T10:18:34;1.33;;;1.23;;
20972;SDS011;10645;52.370;13.314;2022-10-23T10:21:17;1.00;;;0.88;;
20972;SDS011;10645;52.370;13.314;2022-10-23T10:23:52;1.55;;;1.45;;
20972;SDS011;10645;52.370;13.314;2022-10-23T10:26:33;0.90;;;0.85;;
20972;SDS011;10645;52.370;13.314;2022-10-23T10:40:49;1.50;;;1.40;;
20972;SDS011;10645;52.370;13.314;2022-10-23T10:43:29;0.98;;;0.95;;
20972;SDS011;10645;52.370;13.314;2022-10-23T10:46:13;1.58;;;1.48;;
20972;SDS011;10645;52.370;13.314;2022-10-23T10:51:37;0.77;;;0.77;;
20972;SDS011;10645;52.370;13.314;2022-10-23T10:57:15;0.80;;;0.80;;
20972;SDS011;10645;52.370;13.314;2022-10-23T10:59:56;1.00;;;0.85;;
20972;SDS011;10645;52.370;13.314;2022-10-23T11:07:50;3.50;;;0.95;;
20972;SDS011;10645;52.370;13.314;2022-10-23T11:10:19;0.43;;;0.43;;
20972;SDS011;10645;52.370;13.314;2022-10-23T11:12:46;4.25;;;0.90;;
20972;SDS011;10645;52.370;13.314;2022-10-23T11:15:32;0.57;;;0.40;;
20972;SDS011;10645;52.370;13.314;2022-10-23T11:18:03;0.50;;;0.50;;
20972;SDS011;10645;52.370;13.314;2022-10-23T11:26:01;0.63;;;0.63;;
20972;SDS011;10645;52.370;13.314;2022-10-23T11:28:49;0.88;;;0.88;;
20972;SDS011;10645;52.370;13.314;2022-10-23T11:31:35;0.43;;;0.40;;
20972;SDS011;10645;52.370;13.314;2022-10-23T11:36:59;7.50;;;0.80;;
20972;SDS011;10645;52.370;13.314;2022-10-23T11:41:59;0.50;;;0.50;;
20972;SDS011;10645;52.370;13.314;2022-10-23T11:47:28;0.35;;;0.35;;
20972;SDS011;10645;52.370;13.314;2022-10-23T11:52:32;0.35;;;0.35;;
20972;SDS011;10645;52.370;13.314;2022-10-23T11:55:00;0.47;;;0.47;;
20972;SDS011;10645;52.370;13.314;2022-10-23T11:57:26;0.20;;;0.17;;
20972;SDS011;10645;52.370;13.314;2022-10-23T11:59:53;1.92;;;0.52;;
20972;SDS011;10645;52.370;13.314;2022-10-23T12:05:04;0.30;;;0.30;;
20972;SDS011;10645;52.370;13.314;2022-10-23T12:07:34;0.57;;;0.57;;
20972;SDS011;10645;52.370;13.314;2022-10-23T12:10:03;0.52;;;0.52;;
20972;SDS011;10645;52.370;13.314;2022-10-23T12:13:01;2.58;;;1.15;;
20972;SDS011;10645;52.370;13.314;2022-10-23T12:15:53;0.68;;;0.68;;
20972;SDS011;10645;52.370;13.314;2022-10-23T12:18:20;4.95;;;1.25;;
20972;SDS011;10645;52.370;13.314;2022-10-23T12:29:00;1.10;;;1.10;;
20972;SDS011;10645;52.370;13.314;2022-10-23T12:31:30;0.85;;;0.80;;
20972;SDS011;10645;52.370;13.314;2022-10-23T12:34:17;0.73;;;0.73;;
20972;SDS011;10645;52.370;13.314;2022-10-23T12:36:55;0.35;;;0.32;;
20972;SDS011;10645;52.370;13.314;2022-10-23T12:39:35;1.23;;;0.70;;
20972;SDS011;10645;52.370;13.314;2022-10-23T12:42:04;0.28;;;0.28;;
20972;SDS011;10645;52.370;13.314;2022-10-23T12:44:41;0.82;;;0.43;;
20972;SDS011;10645;52.370;13.314;2022-10-23T12:47:10;2.95;;;0.90;;
20972;SDS011;10645;52.370;13.314;2022-10-23T12:49:47;1.27;;;0.70;;
20972;SDS011;10645;52.370;13.314;2022-10-23T12:52:15;0.65;;;0.60;;
20972;SDS011;10645;52.370;13.314;2022-10-23T12:54:43;1.90;;;1.30;;
20972;SDS011;10645;52.370;13.314;2022-10-23T12:57:14;2.15;;;1.50;;
20972;SDS011;10645;52.370;13.314;2022-10-23T12:59:47;0.40;;;0.40;;
20972;SDS011;10645;52.370;13.314;2022-10-23T13:02:20;0.43;;;0.43;;
20972;SDS011;10645;52.370;13.314;2022-10-23T13:04:52;0.73;;;0.40;;
20972;SDS011;10645;52.370;13.314;2022-10-23T13:07:22;0.65;;;0.65;;
20972;SDS011;10645;52.370;13.314;2022-10-23T13:09:54;0.70;;;0.68;;
20972;SDS011;10645;52.370;13.314;2022-10-23T13:12:28;0.55;;;0.43;;
20972;SDS011;10645;52.370;13.314;2022-10-23T13:17:35;0.35;;;0.35;;
20972;SDS011;10645;52.370;13.314;2022-10-23T13:20:10;1.25;;;0.50;;
20972;SDS011;10645;52.370;13.314;2022-10-23T13:22:41;0.30;;;0.30;;
20972;SDS011;10645;52.370;13.314;2022-10-23T13:25:21;1.85;;;0.43;;
20972;SDS011;10645;52.370;13.314;2022-10-23T13:27:50;0.30;;;0.30;;
20972;SDS011;10645;52.370;13.314;2022-10-23T13:30:30;4.30;;;0.82;;
20972;SDS011;10645;52.370;13.314;2022-10-23T13:35:57;0.73;;;0.73;;
20972;SDS011;10645;52.370;13.314;2022-10-23T13:38:33;0.93;;;0.93;;
20972;SDS011;10645;52.370;13.314;2022-10-23T13:41:01;0.80;;;0.63;;
20972;SDS011;10645;52.370;13.314;2022-10-23T13:43:29;0.65;;;0.65;;
20972;SDS011;10645;52.370;13.314;2022-10-23T13:45:57;0.45;;;0.45;;
20972;SDS011;10645;52.370;13.314;2022-10-23T13:48:25;1.75;;;1.13;;
20972;SDS011;10645;52.370;13.314;2022-10-23T13:50:52;1.42;;;1.33;;
20972;SDS011;10645;52.370;13.314;2022-10-23T13:53:18;1.05;;;1.00;;
20972;SDS011;10645;52.370;13.314;2022-10-23T13:55:45;2.63;;;1.98;;
20972;SDS011;10645;52.370;13.314;2022-10-23T13:58:14;1.17;;;1.08;;
20972;SDS011;10645;52.370;13.314;2022-10-23T14:00:40;0.75;;;0.75;;
20972;SDS011;10645;52.370;13.314;2022-10-23T14:03:14;1.13;;;1.02;;
20972;SDS011;10645;52.370;13.314;2022-10-23T14:05:41;1.85;;;1.75;;
20972;SDS011;10645;52.370;13.314;2022-10-23T14:08:07;1.40;;;1.05;;
20972;SDS011;10645;52.370;13.314;2022-10-23T14:10:33;1.52;;;1.17;;
20972;SDS011;10645;52.370;13.314;2022-10-23T14:13:00;3.63;;;1.40;;
20972;SDS011;10645;52.370;13.314;2022-10-23T14:15:26;1.17;;;0.85;;
20972;SDS011;10645;52.370;13.314;2022-10-23T14:17:52;1.17;;;1.08;;
20972;SDS011;10645;52.370;13.314;2022-10-23T14:20:18;1.08;;;0.98;;
20972;SDS011;10645;52.370;13.314;2022-10-23T14:22:44;1.42;;;1.33;;
20972;SDS011;10645;52.370;13.314;2022-10-23T14:25:10;1.63;;;1.42;;
20972;SDS011;10645;52.370;13.314;2022-10-23T14:27:36;2.13;;;1.92;;
20972;SDS011;10645;52.370;13.314;2022-10-23T14:30:02;1.33;;;1.23;;
20972;SDS011;10645;52.370;13.314;2022-10-23T14:32:29;1.40;;;1.30;;
20972;SDS011;10645;52.370;13.314;2022-10-23T14:34:55;1.35;;;0.85;;
20972;SDS011;10645;52.370;13.314;2022-10-23T14:37:21;1.70;;;1.52;;
20972;SDS011;10645;52.370;13.314;2022-10-23T14:39:48;0.70;;;0.70;;
20972;SDS011;10645;52.370;13.314;2022-10-23T14:42:14;0.70;;;0.70;;
20972;SDS011;10645;52.370;13.314;2022-10-23T14:44:40;1.27;;;1.02;;
20972;SDS011;10645;52.370;13.314;2022-10-23T14:47:07;0.77;;;0.70;;
20972;SDS011;10645;52.370;13.314;2022-10-23T14:49:33;6.40;;;1.40;;
20972;SDS011;10645;52.370;13.314;2022-10-23T14:52:00;0.85;;;0.85;;
20972;SDS011;10645;52.370;13.314;2022-10-23T14:54:26;1.30;;;1.20;;
20972;SDS011;10645;52.370;13.314;2022-10-23T14:56:53;1.27;;;1.15;;
20972;SDS011;10645;52.370;13.314;2022-10-23T14:59:19;1.48;;;1.10;;
20972;SDS011;10645;52.370;13.314;2022-10-23T15:01:45;1.08;;;1.08;;
20972;SDS011;10645;52.370;13.314;2022-10-23T15:04:11;0.95;;;0.95;;
20972;SDS011;10645;52.370;13.314;2022-10-23T15:06:38;1.17;;;0.90;;
20972;SDS011;10645;52.370;13.314;2022-10-23T15:09:06;1.55;;;1.45;;
20972;SDS011;10645;52.370;13.314;2022-10-23T15:11:32;1.50;;;0.95;;
20972;SDS011;10645;52.370;13.314;2022-10-23T15:13:58;1.00;;;0.90;;
20972;SDS011;10645;52.370;13.314;2022-10-23T15:16:25;0.73;;;0.73;;
20972;SDS011;10645;52.370;13.314;2022-10-23T15:18:51;1.05;;;0.70;;
20972;SDS011;10645;52.370;13.314;2022-10-23T15:21:17;0.68;;;0.68;;
20972;SDS011;10645;52.370;13.314;2022-10-23T15:23:44;0.98;;;0.80;;
20972;SDS011;10645;52.370;13.314;2022-10-23T15:26:12;7.68;;;1.85;;
20972;SDS011;10645;52.370;13.314;2022-10-23T15:28:44;1.48;;;1.35;;
20972;SDS011;10645;52.370;13.314;2022-10-23T15:34:08;0.93;;;0.80;;
20972;SDS011;10645;52.370;13.314;2022-10-23T15:36:36;3.53;;;1.02;;
20972;SDS011;10645;52.370;13.314;2022-10-23T15:39:05;1.77;;;1.67;;
20972;SDS011;10645;52.370;13.314;2022-10-23T15:41:32;1.95;;;1.10;;
20972;SDS011;10645;52.370;13.314;2022-10-23T15:44:00;0.98;;;0.98;;
20972;SDS011;10645;52.370;13.314;2022-10-23T15:46:27;3.38;;;2.30;;
20972;SDS011;10645;52.370;13.314;2022-10-23T15:48:54;1.88;;;1.30;;
20972;SDS011;10645;52.370;13.314;2022-10-23T15:51:20;1.23;;;1.13;;
20972;SDS011;10645;52.370;13.314;2022-10-23T15:53:46;2.85;;;0.85;;
20972;SDS011;10645;52.370;13.314;2022-10-23T15:56:12;1.73;;;1.27;;
20972;SDS011;10645;52.370;13.314;2022-10-23T15:58:38;1.55;;;1.27;;
20972;SDS011;10645;52.370;13.314;2022-10-23T16:01:05;2.03;;;1.85;;
20972;SDS011;10645;52.370;13.314;2022-10-23T16:03:31;3.60;;;1.25;;
20972;SDS011;10645;52.370;13.314;2022-10-23T16:06:01;1.38;;;0.63;;
20972;SDS011;10645;52.370;13.314;2022-10-23T16:08:32;0.95;;;0.95;;
20972;SDS011;10645;52.370;13.314;2022-10-23T16:10:58;1.45;;;0.65;;
20972;SDS011;10645;52.370;13.314;2022-10-23T16:13:25;1.20;;;1.08;;
20972;SDS011;10645;52.370;13.314;2022-10-23T16:15:51;0.68;;;0.68;;
20972;SDS011;10645;52.370;13.314;2022-10-23T16:18:21;0.88;;;0.88;;
20972;SDS011;10645;52.370;13.314;2022-10-23T16:20:48;1.15;;;1.05;;
20972;SDS011;10645;52.370;13.314;2022-10-23T16:23:15;0.75;;;0.75;;